createdAt,value
2023-04-10T00:00:32.203Z,1021.34
2023-04-10T00:01:32.201Z,1021.35
2023-04-10T00:02:32.276Z,1021.36
2023-04-10T00:03:32.205Z,1021.36
2023-04-10T00:04:32.146Z,1021.31
2023-04-10T00:05:32.107Z,1021.27
2023-04-10T00:06:32.086Z,1021.30
2023-04-10T00:07:32.118Z,1021.27
2023-04-10T00:08:32.056Z,1021.23
2023-04-10T00:09:32.048Z,1021.19
2023-04-10T00:10:32.040Z,1021.18
2023-04-10T00:11:32.028Z,1021.17
2023-04-10T00:12:32.033Z,1021.16
2023-04-10T00:13:32.022Z,1021.13
2023-04-10T00:14:31.993Z,1021.16
2023-04-10T00:15:31.982Z,1021.12
2023-04-10T00:16:31.984Z,1021.15
2023-04-10T00:17:32.007Z,1021.15
2023-04-10T00:18:31.951Z,1021.12
2023-04-10T00:19:31.982Z,1021.11
2023-04-10T00:20:31.903Z,1021.06
2023-04-10T00:21:31.951Z,1021.05
2023-04-10T00:22:31.928Z,1021.04
2023-04-10T00:23:31.882Z,1020.98
2023-04-10T00:24:31.875Z,1020.97
2023-04-10T00:25:31.854Z,1020.99
2023-04-10T00:26:31.893Z,1020.99
2023-04-10T00:27:31.840Z,1020.95
2023-04-10T00:28:31.903Z,1020.92
2023-04-10T00:29:31.801Z,1020.94
2023-04-10T00:30:31.782Z,1020.89
2023-04-10T00:31:31.787Z,1020.90
2023-04-10T00:32:31.795Z,1020.89
2023-04-10T00:33:31.785Z,1020.86
2023-04-10T00:34:31.756Z,1020.89
2023-04-10T00:35:31.743Z,1020.84
2023-04-10T00:36:31.728Z,1020.82
2023-04-10T00:37:31.687Z,1020.84
2023-04-10T00:38:31.715Z,1020.85
2023-04-10T00:39:31.675Z,1020.81
2023-04-10T00:40:31.660Z,1020.80
2023-04-10T00:41:31.665Z,1020.82
2023-04-10T00:42:31.652Z,1020.80
2023-04-10T00:43:31.640Z,1020.75
2023-04-10T00:44:31.606Z,1020.78
2023-04-10T00:45:31.592Z,1020.74
2023-04-10T00:46:31.629Z,1020.73
2023-04-10T00:47:31.611Z,1020.79
2023-04-10T00:48:31.545Z,1020.72
2023-04-10T00:49:31.535Z,1020.78
2023-04-10T00:50:31.526Z,1020.76
2023-04-10T00:51:31.505Z,1020.75
2023-04-10T00:52:31.504Z,1020.81
2023-04-10T00:53:31.483Z,1020.80
2023-04-10T00:54:31.490Z,1020.79
2023-04-10T00:55:31.494Z,1020.78
2023-04-10T00:56:31.459Z,1020.80
2023-04-10T00:57:31.439Z,1020.81
2023-04-10T00:58:31.431Z,1020.78
2023-04-10T00:59:31.428Z,1020.80
2023-04-10T01:00:31.392Z,1020.79
2023-04-10T01:01:31.376Z,1020.79
2023-04-10T01:02:31.486Z,1020.78
2023-04-10T01:03:31.595Z,1020.78
2023-04-10T01:04:31.460Z,1020.76
2023-04-10T01:05:31.375Z,1020.76
2023-04-10T01:06:31.333Z,1020.70
2023-04-10T01:07:31.318Z,1020.73
2023-04-10T01:08:31.282Z,1020.77
2023-04-10T01:09:31.255Z,1020.74
2023-04-10T01:10:31.262Z,1020.78
2023-04-10T01:11:31.253Z,1020.71
2023-04-10T01:12:31.277Z,1020.70
2023-04-10T01:13:31.219Z,1020.65
2023-04-10T01:14:31.238Z,1020.68
2023-04-10T01:15:31.243Z,1020.64
2023-04-10T01:16:31.222Z,1020.63
2023-04-10T01:17:31.209Z,1020.63
2023-04-10T01:18:31.170Z,1020.62
2023-04-10T01:19:31.156Z,1020.58
2023-04-10T01:20:31.151Z,1020.60
2023-04-10T01:21:31.151Z,1020.55
2023-04-10T01:22:31.105Z,1020.54
2023-04-10T01:23:31.124Z,1020.54
2023-04-10T01:24:31.076Z,1020.52
2023-04-10T01:25:31.099Z,1020.52
2023-04-10T01:26:31.069Z,1020.49
2023-04-10T01:27:31.037Z,1020.52
2023-04-10T01:28:31.052Z,1020.43
2023-04-10T01:29:31.148Z,1020.42
2023-04-10T01:30:31.113Z,1020.42
2023-04-10T01:31:31.039Z,1020.42
2023-04-10T01:32:31.002Z,1020.39
2023-04-10T01:33:30.997Z,1020.38
2023-04-10T01:34:31.007Z,1020.39
2023-04-10T01:35:30.955Z,1020.36
2023-04-10T01:36:30.925Z,1020.37
2023-04-10T01:37:30.967Z,1020.34
2023-04-10T01:38:30.888Z,1020.33
2023-04-10T01:39:30.887Z,1020.29
2023-04-10T01:40:30.936Z,1020.28
2023-04-10T01:41:30.861Z,1020.24
2023-04-10T01:42:30.847Z,1020.24
2023-04-10T01:43:30.825Z,1020.20
2023-04-10T01:44:30.842Z,1020.20
2023-04-10T01:45:30.904Z,1020.21
2023-04-10T01:46:30.889Z,1020.19
2023-04-10T01:47:30.809Z,1020.18
2023-04-10T01:48:30.848Z,1020.19
2023-04-10T01:49:30.789Z,1020.22
2023-04-10T01:50:30.798Z,1020.24
2023-04-10T01:51:30.743Z,1020.23
2023-04-10T01:52:30.764Z,1020.21
2023-04-10T01:53:30.691Z,1020.22
2023-04-10T01:54:30.741Z,1020.20
2023-04-10T01:55:30.681Z,1020.19
2023-04-10T01:56:30.685Z,1020.14
2023-04-10T01:57:30.757Z,1020.16
2023-04-10T01:58:30.675Z,1020.18
2023-04-10T01:59:30.617Z,1020.18
2023-04-10T02:00:30.641Z,1020.19
2023-04-10T02:01:30.769Z,1020.20
2023-04-10T02:02:30.774Z,1020.19
2023-04-10T02:03:30.822Z,1020.20
2023-04-10T02:04:30.699Z,1020.18
2023-04-10T02:05:30.563Z,1020.16
2023-04-10T02:06:30.593Z,1020.18
2023-04-10T02:07:30.549Z,1020.12
2023-04-10T02:08:30.559Z,1020.11
2023-04-10T02:09:38.046Z,1020.12
2023-04-10T02:10:30.482Z,1020.10
2023-04-10T02:11:30.470Z,1020.14
2023-04-10T02:12:30.494Z,1020.13
2023-04-10T02:13:30.464Z,1020.10
2023-04-10T02:14:30.485Z,1020.09
2023-04-10T02:15:30.464Z,1020.05
2023-04-10T02:16:30.461Z,1020.09
2023-04-10T02:17:30.425Z,1020.10
2023-04-10T02:18:30.418Z,1020.12
2023-04-10T02:19:30.417Z,1020.08
2023-04-10T02:20:30.430Z,1020.08
2023-04-10T02:21:30.340Z,1020.05
2023-04-10T02:22:30.368Z,1020.06
2023-04-10T02:23:30.309Z,1020.02
2023-04-10T02:24:30.338Z,1020.01
2023-04-10T02:25:30.316Z,1020.04
2023-04-10T02:26:30.340Z,1020.01
2023-04-10T02:27:30.326Z,1020.01
2023-04-10T02:28:30.284Z,1020.03
2023-04-10T02:29:30.314Z,1020.04
2023-04-10T02:30:30.269Z,1019.96
2023-04-10T02:31:30.311Z,1019.99
2023-04-10T02:32:30.288Z,1019.97
2023-04-10T02:33:30.245Z,1019.96
2023-04-10T02:34:30.202Z,1019.91
2023-04-10T02:35:30.191Z,1019.97
2023-04-10T02:36:30.189Z,1019.97
2023-04-10T02:37:30.155Z,1019.98
2023-04-10T02:38:30.150Z,1019.97
2023-04-10T02:39:30.152Z,1020.04
2023-04-10T02:40:30.146Z,1020.08
2023-04-10T02:41:30.125Z,1020.03
2023-04-10T02:42:30.094Z,1020.04
2023-04-10T02:43:30.091Z,1020.06
2023-04-10T02:44:30.072Z,1020.03
2023-04-10T02:45:30.075Z,1020.10
2023-04-10T02:46:30.198Z,1020.03
2023-04-10T02:47:30.060Z,1020.04
2023-04-10T02:48:30.046Z,1020.07
2023-04-10T02:49:30.022Z,1020.06
2023-04-10T02:50:30.022Z,1020.03
2023-04-10T02:51:29.995Z,1020.05
2023-04-10T02:52:30.059Z,1020.04
2023-04-10T02:53:29.976Z,1020.06
2023-04-10T02:54:29.967Z,1020.00
2023-04-10T02:55:29.946Z,1020.00
2023-04-10T02:56:29.925Z,1019.96
2023-04-10T02:57:29.901Z,1020.00
2023-04-10T02:58:29.931Z,1019.92
2023-04-10T02:59:29.876Z,1019.94
2023-04-10T03:00:29.911Z,1019.91
2023-04-10T03:01:29.952Z,1019.94
2023-04-10T03:02:30.029Z,1019.91
2023-04-10T03:03:30.010Z,1019.92
2023-04-10T03:04:29.856Z,1019.95
2023-04-10T03:05:29.793Z,1019.93
2023-04-10T03:06:29.815Z,1019.95
2023-04-10T03:07:29.811Z,1019.93
2023-04-10T03:08:29.775Z,1019.89
2023-04-10T03:09:29.777Z,1019.87
2023-04-10T03:10:29.752Z,1019.90
2023-04-10T03:11:29.760Z,1019.87
2023-04-10T03:12:29.718Z,1019.86
2023-04-10T03:13:29.703Z,1019.84
2023-04-10T03:14:29.701Z,1019.84
2023-04-10T03:15:29.723Z,1019.78
2023-04-10T03:16:29.716Z,1019.76
2023-04-10T03:17:39.553Z,1019.74
2023-04-10T03:18:29.695Z,1019.71
2023-04-10T03:19:29.706Z,1019.70
2023-04-10T03:20:29.670Z,1019.70
2023-04-10T03:21:29.664Z,1019.72
2023-04-10T03:22:29.627Z,1019.67
2023-04-10T03:23:29.642Z,1019.71
2023-04-10T03:24:29.708Z,1019.68
2023-04-10T03:25:29.561Z,1019.65
2023-04-10T03:26:29.599Z,1019.66
2023-04-10T03:27:29.523Z,1019.64
2023-04-10T03:28:29.508Z,1019.61
2023-04-10T03:29:29.519Z,1019.62
2023-04-10T03:30:29.520Z,1019.60
2023-04-10T03:31:29.736Z,1019.56
2023-04-10T03:32:29.518Z,1019.59
2023-04-10T03:33:29.558Z,1019.58
2023-04-10T03:34:29.520Z,1019.59
2023-04-10T03:35:29.423Z,1019.53
2023-04-10T03:36:29.536Z,1019.54
2023-04-10T03:37:29.438Z,1019.55
2023-04-10T03:38:29.446Z,1019.54
2023-04-10T03:39:29.400Z,1019.54
2023-04-10T03:40:29.483Z,1019.52
2023-04-10T03:41:29.376Z,1019.48
2023-04-10T03:42:29.369Z,1019.48
2023-04-10T03:43:29.378Z,1019.49
2023-04-10T03:44:29.319Z,1019.44
2023-04-10T03:45:29.334Z,1019.42
2023-04-10T03:46:29.330Z,1019.41
2023-04-10T03:47:29.301Z,1019.43
2023-04-10T03:48:29.263Z,1019.45
2023-04-10T03:49:29.322Z,1019.43
2023-04-10T03:50:29.252Z,1019.46
2023-04-10T03:51:29.254Z,1019.37
2023-04-10T03:52:29.294Z,1019.37
2023-04-10T03:53:29.267Z,1019.39
2023-04-10T03:54:29.230Z,1019.38
2023-04-10T03:55:29.216Z,1019.40
2023-04-10T03:56:29.187Z,1019.41
2023-04-10T03:57:29.141Z,1019.41
2023-04-10T03:58:29.162Z,1019.39
2023-04-10T03:59:38.191Z,1019.42
2023-04-10T04:00:30.222Z,1019.42
2023-04-10T04:01:29.186Z,1019.39
2023-04-10T04:02:29.307Z,1019.37
2023-04-10T04:03:29.253Z,1019.35
2023-04-10T04:04:29.907Z,1019.40
2023-04-10T04:05:29.051Z,1019.38
2023-04-10T04:06:29.174Z,1019.38
2023-04-10T04:07:29.456Z,1019.37
2023-04-10T04:08:31.488Z,1019.37
2023-04-10T04:09:29.058Z,1019.33
2023-04-10T04:10:29.020Z,1019.33
2023-04-10T04:11:29.059Z,1019.36
2023-04-10T04:12:28.967Z,1019.35
2023-04-10T04:13:29.082Z,1019.34
2023-04-10T04:14:30.547Z,1019.31
2023-04-10T04:15:28.946Z,1019.34
2023-04-10T04:16:28.984Z,1019.32
2023-04-10T04:17:28.944Z,1019.31
2023-04-10T04:18:30.484Z,1019.32
2023-04-10T04:19:29.979Z,1019.31
2023-04-10T04:20:28.888Z,1019.29
2023-04-10T04:21:28.874Z,1019.30
2023-04-10T04:22:28.868Z,1019.29
2023-04-10T04:23:29.054Z,1019.29
2023-04-10T04:24:30.115Z,1019.30
2023-04-10T04:25:29.628Z,1019.33
2023-04-10T04:26:28.833Z,1019.32
2023-04-10T04:27:28.798Z,1019.32
2023-04-10T04:28:30.339Z,1019.29
2023-04-10T04:29:28.814Z,1019.34
2023-04-10T04:30:28.752Z,1019.26
2023-04-10T04:31:28.749Z,1019.26
2023-04-10T04:32:28.808Z,1019.27
2023-04-10T04:33:28.706Z,1019.23
2023-04-10T04:34:28.859Z,1019.26
2023-04-10T04:35:28.686Z,1019.24
2023-04-10T04:36:30.529Z,1019.23
2023-04-10T04:37:28.685Z,1019.24
2023-04-10T04:38:36.471Z,1019.28
2023-04-10T04:39:28.737Z,1019.25
2023-04-10T04:40:28.712Z,1019.22
2023-04-10T04:41:28.694Z,1019.22
2023-04-10T04:42:28.651Z,1019.16
2023-04-10T04:43:28.608Z,1019.15
2023-04-10T04:44:29.075Z,1019.18
2023-04-10T04:45:28.613Z,1019.13
2023-04-10T04:46:28.947Z,1019.10
2023-04-10T04:47:29.138Z,1019.12
2023-04-10T04:48:28.515Z,1019.12
2023-04-10T04:49:28.516Z,1019.12
2023-04-10T04:50:28.519Z,1019.12
2023-04-10T04:51:28.464Z,1019.12
2023-04-10T04:52:28.501Z,1019.15
2023-04-10T04:53:28.491Z,1019.19
2023-04-10T04:54:29.522Z,1019.19
2023-04-10T04:55:28.470Z,1019.21
2023-04-10T04:56:28.457Z,1019.19
2023-04-10T04:57:28.397Z,1019.23
2023-04-10T04:58:34.221Z,1019.23
2023-04-10T04:59:28.547Z,1019.19
2023-04-10T05:00:28.754Z,1019.22
2023-04-10T05:01:28.419Z,1019.21
2023-04-10T05:02:28.570Z,1019.20
2023-04-10T05:03:28.662Z,1019.23
2023-04-10T05:04:29.644Z,1019.19
2023-04-10T05:05:28.308Z,1019.18
2023-04-10T05:06:28.373Z,1019.21
2023-04-10T05:07:36.788Z,1019.18
2023-04-10T05:08:29.948Z,1019.19
2023-04-10T05:09:28.250Z,1019.16
2023-04-10T05:10:28.246Z,1019.17
2023-04-10T05:11:28.208Z,1019.17
2023-04-10T05:12:28.252Z,1019.13
2023-04-10T05:13:28.217Z,1019.12
2023-04-10T05:14:28.243Z,1019.14
2023-04-10T05:15:28.185Z,1019.10
2023-04-10T05:16:28.182Z,1019.11
2023-04-10T05:17:28.233Z,1019.19
2023-04-10T05:18:28.182Z,1019.16
2023-04-10T05:19:28.117Z,1019.18
2023-04-10T05:20:28.156Z,1019.25
2023-04-10T05:21:28.107Z,1019.19
2023-04-10T05:22:28.079Z,1019.19
2023-04-10T05:23:28.130Z,1019.19
2023-04-10T05:24:28.051Z,1019.21
2023-04-10T05:25:28.043Z,1019.25
2023-04-10T05:26:28.023Z,1019.22
2023-04-10T05:27:28.043Z,1019.20
2023-04-10T05:28:28.080Z,1019.19
2023-04-10T05:29:28.182Z,1019.25
2023-04-10T05:30:28.105Z,1019.23
2023-04-10T05:31:28.037Z,1019.20
2023-04-10T05:32:28.230Z,1019.16
2023-04-10T05:33:28.078Z,1019.18
2023-04-10T05:34:28.004Z,1019.20
2023-04-10T05:35:28.120Z,1019.23
2023-04-10T05:36:27.956Z,1019.21
2023-04-10T05:37:28.071Z,1019.19
2023-04-10T05:38:28.053Z,1019.16
2023-04-10T05:39:28.124Z,1019.20
2023-04-10T05:40:27.971Z,1019.20
2023-04-10T05:41:28.017Z,1019.20
2023-04-10T05:42:27.885Z,1019.21
2023-04-10T05:43:27.833Z,1019.15
2023-04-10T05:44:27.828Z,1019.17
2023-04-10T05:45:27.795Z,1019.14
2023-04-10T05:46:27.815Z,1019.16
2023-04-10T05:47:28.179Z,1019.11
2023-04-10T05:48:27.859Z,1019.09
2023-04-10T05:49:27.776Z,1019.14
2023-04-10T05:50:29.974Z,1019.12
2023-04-10T05:51:27.722Z,1019.10
2023-04-10T05:52:27.809Z,1019.12
2023-04-10T05:53:27.696Z,1019.08
2023-04-10T05:54:27.688Z,1019.08
2023-04-10T05:55:27.815Z,1019.10
2023-04-10T05:56:28.041Z,1019.11
2023-04-10T05:57:27.955Z,1019.09
2023-04-10T05:58:27.815Z,1019.11
2023-04-10T05:59:27.883Z,1019.01
2023-04-10T06:00:27.830Z,1019.01
2023-04-10T06:01:28.022Z,1019.02
2023-04-10T06:02:28.022Z,1019.06
2023-04-10T06:03:27.820Z,1019.05
2023-04-10T06:04:27.728Z,1019.09
2023-04-10T06:05:27.594Z,1019.06
2023-04-10T06:06:27.544Z,1019.08
2023-04-10T06:07:27.508Z,1019.09
2023-04-10T06:08:27.495Z,1019.04
2023-04-10T06:09:27.502Z,1018.96
2023-04-10T06:10:27.499Z,1019.02
2023-04-10T06:11:27.458Z,1018.97
2023-04-10T06:12:27.482Z,1018.92
2023-04-10T06:13:27.469Z,1018.96
2023-04-10T06:14:27.430Z,1018.96
2023-04-10T06:15:27.388Z,1018.95
2023-04-10T06:16:27.391Z,1018.91
2023-04-10T06:17:27.403Z,1018.93
2023-04-10T06:18:27.345Z,1018.89
2023-04-10T06:19:27.349Z,1018.92
2023-04-10T06:20:27.344Z,1018.91
2023-04-10T06:21:27.478Z,1018.88
2023-04-10T06:22:27.341Z,1018.94
2023-04-10T06:23:27.335Z,1018.96
2023-04-10T06:24:27.290Z,1018.92
2023-04-10T06:25:27.398Z,1018.93
2023-04-10T06:26:27.250Z,1018.96
2023-04-10T06:27:27.271Z,1018.91
2023-04-10T06:28:27.210Z,1018.96
2023-04-10T06:29:27.183Z,1018.91
2023-04-10T06:30:27.250Z,1018.92
2023-04-10T06:31:27.509Z,1018.93
2023-04-10T06:32:32.915Z,1018.94
2023-04-10T06:33:27.427Z,1018.95
2023-04-10T06:34:28.348Z,1018.98
2023-04-10T06:35:27.152Z,1018.96
2023-04-10T06:36:27.118Z,1018.96
2023-04-10T06:37:27.112Z,1018.94
2023-04-10T06:38:27.103Z,1018.95
2023-04-10T06:39:27.069Z,1018.89
2023-04-10T06:40:27.236Z,1018.87
2023-04-10T06:41:27.053Z,1018.90
2023-04-10T06:42:27.212Z,1018.88
2023-04-10T06:43:27.167Z,1018.86
2023-04-10T06:44:26.994Z,1018.87
2023-04-10T06:45:27.168Z,1018.86
2023-04-10T06:46:27.656Z,1018.81
2023-04-10T06:47:27.813Z,1018.79
2023-04-10T06:48:27.839Z,1018.81
2023-04-10T06:49:26.933Z,1018.81
2023-04-10T06:50:26.941Z,1018.84
2023-04-10T06:51:27.096Z,1018.80
2023-04-10T06:52:26.905Z,1018.84
2023-04-10T06:53:28.629Z,1018.74
2023-04-10T06:54:26.950Z,1018.80
2023-04-10T06:55:26.861Z,1018.79
2023-04-10T06:56:26.864Z,1018.80
2023-04-10T06:57:27.648Z,1018.78
2023-04-10T06:58:27.342Z,1018.81
2023-04-10T06:59:28.833Z,1018.75
2023-04-10T07:00:27.206Z,1018.76
2023-04-10T07:01:26.869Z,1018.65
2023-04-10T07:02:27.209Z,1018.70
2023-04-10T07:03:26.805Z,1018.67
2023-04-10T07:04:26.710Z,1018.61
2023-04-10T07:05:27.146Z,1018.59
2023-04-10T07:06:26.978Z,1018.52
2023-04-10T07:07:26.756Z,1018.58
2023-04-10T07:08:26.891Z,1018.53
2023-04-10T07:09:26.713Z,1018.49
2023-04-10T07:10:26.913Z,1018.50
2023-04-10T07:11:26.907Z,1018.49
2023-04-10T07:12:26.772Z,1018.49
2023-04-10T07:13:26.747Z,1018.49
2023-04-10T07:14:26.798Z,1018.47
2023-04-10T07:15:27.143Z,1018.52
2023-04-10T07:16:26.615Z,1018.48
2023-04-10T07:17:26.723Z,1018.47
2023-04-10T07:18:26.790Z,1018.52
2023-04-10T07:19:26.552Z,1018.44
2023-04-10T07:20:26.683Z,1018.43
2023-04-10T07:21:27.190Z,1018.42
2023-04-10T07:22:26.574Z,1018.45
2023-04-10T07:23:26.564Z,1018.37
2023-04-10T07:24:26.623Z,1018.39
2023-04-10T07:25:26.499Z,1018.37
2023-04-10T07:26:26.445Z,1018.34
2023-04-10T07:27:26.592Z,1018.34
2023-04-10T07:28:26.558Z,1018.28
2023-04-10T07:29:26.426Z,1018.27
2023-04-10T07:30:26.513Z,1018.25
2023-04-10T07:31:26.482Z,1018.30
2023-04-10T07:32:26.813Z,1018.30
2023-04-10T07:33:27.070Z,1018.26
2023-04-10T07:34:26.292Z,1018.29
2023-04-10T07:35:26.479Z,1018.30
2023-04-10T07:36:26.295Z,1018.27
2023-04-10T07:37:26.482Z,1018.25
2023-04-10T07:38:26.345Z,1018.28
2023-04-10T07:39:26.489Z,1018.25
2023-04-10T07:40:26.424Z,1018.26
2023-04-10T07:41:26.406Z,1018.26
2023-04-10T07:42:26.186Z,1018.25
2023-04-10T07:43:26.219Z,1018.25
2023-04-10T07:44:26.237Z,1018.26
2023-04-10T07:45:26.143Z,1018.19
2023-04-10T07:46:26.155Z,1018.21
2023-04-10T07:47:35.078Z,1018.18
2023-04-10T07:48:29.130Z,1018.15
2023-04-10T07:49:26.275Z,1018.14
2023-04-10T07:50:34.949Z,1018.11
2023-04-10T07:51:41.565Z,1018.10
2023-04-10T07:52:26.604Z,1018.07
2023-04-10T07:53:33.660Z,1018.07
2023-04-10T07:54:26.250Z,1018.06
2023-04-10T07:55:26.059Z,1018.02
2023-04-10T07:56:26.124Z,1018.01
2023-04-10T07:57:26.021Z,1017.96
2023-04-10T07:58:26.030Z,1017.95
2023-04-10T07:59:26.073Z,1017.95
2023-04-10T08:00:25.957Z,1017.91
2023-04-10T08:01:25.984Z,1017.93
2023-04-10T08:02:26.308Z,1017.85
2023-04-10T08:03:26.091Z,1017.88
2023-04-10T08:04:26.126Z,1017.85
2023-04-10T08:05:25.942Z,1017.83
2023-04-10T08:06:25.932Z,1017.80
2023-04-10T08:07:25.888Z,1017.75
2023-04-10T08:08:25.806Z,1017.76
2023-04-10T08:09:25.833Z,1017.75
2023-04-10T08:10:25.863Z,1017.75
2023-04-10T08:11:25.950Z,1017.76
2023-04-10T08:12:25.789Z,1017.76
2023-04-10T08:13:25.757Z,1017.73
2023-04-10T08:14:25.742Z,1017.69
2023-04-10T08:15:25.751Z,1017.70
2023-04-10T08:16:25.736Z,1017.61
2023-04-10T08:17:25.919Z,1017.65
2023-04-10T08:18:25.685Z,1017.60
2023-04-10T08:19:36.988Z,1017.61
2023-04-10T08:20:25.679Z,1017.59
2023-04-10T08:21:26.056Z,1017.58
2023-04-10T08:22:25.816Z,1017.53
2023-04-10T08:23:26.245Z,1017.56
2023-04-10T08:24:25.912Z,1017.53
2023-04-10T08:25:26.221Z,1017.54
2023-04-10T08:26:29.874Z,1017.50
2023-04-10T08:27:25.674Z,1017.46
2023-04-10T08:28:25.739Z,1017.49
2023-04-10T08:29:25.835Z,1017.46
2023-04-10T08:30:25.842Z,1017.48
2023-04-10T08:31:25.936Z,1017.42
2023-04-10T08:32:25.738Z,1017.42
2023-04-10T08:33:25.732Z,1017.45
2023-04-10T08:34:25.595Z,1017.45
2023-04-10T08:35:25.984Z,1017.39
2023-04-10T08:36:25.661Z,1017.38
2023-04-10T08:37:25.643Z,1017.37
2023-04-10T08:38:26.805Z,1017.37
2023-04-10T08:39:25.615Z,1017.33
2023-04-10T08:40:30.880Z,1017.34
2023-04-10T08:41:26.478Z,1017.24
2023-04-10T08:42:25.446Z,1017.31
2023-04-10T08:43:26.008Z,1017.23
2023-04-10T08:44:33.910Z,1017.25
2023-04-10T08:45:25.382Z,1017.27
2023-04-10T08:46:25.433Z,1017.21
2023-04-10T08:47:25.404Z,1017.20
2023-04-10T08:48:25.281Z,1017.16
2023-04-10T08:49:25.610Z,1017.14
2023-04-10T08:50:25.356Z,1017.15
2023-04-10T08:51:26.683Z,1017.13
2023-04-10T08:52:25.281Z,1017.18
2023-04-10T08:53:25.231Z,1017.14
2023-04-10T08:54:25.177Z,1017.13
2023-04-10T08:55:25.184Z,1017.12
2023-04-10T08:56:25.208Z,1017.13
2023-04-10T08:57:25.158Z,1017.10
2023-04-10T08:58:25.153Z,1017.06
2023-04-10T08:59:25.179Z,1017.09
2023-04-10T09:00:25.155Z,1017.09
2023-04-10T09:01:25.163Z,1017.04
2023-04-10T09:02:25.333Z,1017.03
2023-04-10T09:03:26.055Z,1016.99
2023-04-10T09:04:26.365Z,1016.94
2023-04-10T09:05:25.486Z,1016.99
2023-04-10T09:06:25.091Z,1017.01
2023-04-10T09:07:25.011Z,1017.02
2023-04-10T09:08:25.020Z,1017.03
2023-04-10T09:09:24.995Z,1017.03
2023-04-10T09:10:24.981Z,1017.00
2023-04-10T09:11:25.331Z,1017.02
2023-04-10T09:12:24.957Z,1016.98
2023-04-10T09:13:24.939Z,1016.98
2023-04-10T09:14:24.939Z,1016.99
2023-04-10T09:15:24.893Z,1016.98
2023-04-10T09:16:24.968Z,1017.00
2023-04-10T09:17:25.306Z,1016.98
2023-04-10T09:18:24.989Z,1017.00
2023-04-10T09:19:24.994Z,1017.02
2023-04-10T09:20:24.918Z,1017.05
2023-04-10T09:21:24.876Z,1017.05
2023-04-10T09:22:24.855Z,1016.96
2023-04-10T09:23:24.995Z,1016.96
2023-04-10T09:24:28.761Z,1017.01
2023-04-10T09:25:25.292Z,1016.98
2023-04-10T09:26:24.871Z,1017.04
2023-04-10T09:27:25.743Z,1016.99
2023-04-10T09:28:25.870Z,1017.01
2023-04-10T09:29:25.867Z,1017.01
2023-04-10T09:30:25.265Z,1017.03
2023-04-10T09:31:24.815Z,1017.01
2023-04-10T09:32:25.452Z,1017.01
2023-04-10T09:33:24.799Z,1017.00
2023-04-10T09:34:24.872Z,1017.01
2023-04-10T09:35:24.766Z,1017.00
2023-04-10T09:36:24.857Z,1016.94
2023-04-10T09:37:24.653Z,1016.92
2023-04-10T09:38:24.686Z,1016.89
2023-04-10T09:39:25.020Z,1016.84
2023-04-10T09:40:24.832Z,1016.82
2023-04-10T09:41:24.956Z,1016.84
2023-04-10T09:42:24.646Z,1016.74
2023-04-10T09:43:24.773Z,1016.71
2023-04-10T09:44:27.731Z,1016.80
2023-04-10T09:45:25.053Z,1016.62
2023-04-10T09:46:25.017Z,1016.59
2023-04-10T09:47:26.652Z,1016.65
2023-04-10T09:48:25.309Z,1016.58
2023-04-10T09:49:26.207Z,1016.61
2023-04-10T09:50:24.459Z,1016.58
2023-04-10T09:51:25.885Z,1016.67
2023-04-10T09:52:24.370Z,1016.68
2023-04-10T09:53:24.378Z,1016.71
2023-04-10T09:54:24.354Z,1016.65
2023-04-10T09:55:24.370Z,1016.67
2023-04-10T09:56:24.347Z,1016.60
2023-04-10T09:57:24.338Z,1016.61
2023-04-10T09:58:24.464Z,1016.51
2023-04-10T09:59:24.298Z,1016.56
2023-04-10T10:00:24.311Z,1016.57
2023-04-10T10:01:24.431Z,1016.55
2023-04-10T10:02:24.567Z,1016.57
2023-04-10T10:03:24.376Z,1016.52
2023-04-10T10:04:24.270Z,1016.54
2023-04-10T10:05:24.270Z,1016.53
2023-04-10T10:06:24.254Z,1016.54
2023-04-10T10:07:24.238Z,1016.48
2023-04-10T10:08:24.287Z,1016.37
2023-04-10T10:09:24.158Z,1016.46
2023-04-10T10:10:24.245Z,1016.46
2023-04-10T10:11:24.200Z,1016.39
2023-04-10T10:12:24.126Z,1016.41
2023-04-10T10:13:24.119Z,1016.39
2023-04-10T10:14:24.101Z,1016.45
2023-04-10T10:15:24.117Z,1016.36
2023-04-10T10:16:24.066Z,1016.39
2023-04-10T10:17:24.084Z,1016.32
2023-04-10T10:18:24.091Z,1016.37
2023-04-10T10:19:24.065Z,1016.35
2023-04-10T10:20:24.012Z,1016.27
2023-04-10T10:21:24.014Z,1016.28
2023-04-10T10:22:23.972Z,1016.23
2023-04-10T10:23:23.989Z,1016.24
2023-04-10T10:24:23.944Z,1016.20
2023-04-10T10:25:26.233Z,1016.15
2023-04-10T10:26:24.552Z,1016.18
2023-04-10T10:27:24.250Z,1016.08
2023-04-10T10:28:24.175Z,1016.11
2023-04-10T10:29:24.898Z,1016.15
2023-04-10T10:30:29.478Z,1016.13
2023-04-10T10:31:27.337Z,1016.10
2023-04-10T10:32:27.035Z,1016.02
2023-04-10T10:33:24.059Z,1016.05
2023-04-10T10:34:23.856Z,1016.12
2023-04-10T10:35:25.563Z,1015.97
2023-04-10T10:36:23.883Z,1015.89
2023-04-10T10:37:23.860Z,1015.88
2023-04-10T10:38:23.945Z,1015.93
2023-04-10T10:39:23.824Z,1015.86
2023-04-10T10:40:23.751Z,1015.80
2023-04-10T10:41:23.777Z,1015.86
2023-04-10T10:42:23.997Z,1015.79
2023-04-10T10:43:23.741Z,1015.71
2023-04-10T10:44:23.856Z,1015.67
2023-04-10T10:45:23.859Z,1015.67
2023-04-10T10:46:23.797Z,1015.70
2023-04-10T10:47:23.752Z,1015.62
2023-04-10T10:48:23.659Z,1015.58
2023-04-10T10:49:23.713Z,1015.52
2023-04-10T10:50:24.862Z,1015.55
2023-04-10T10:51:23.606Z,1015.45
2023-04-10T10:52:23.694Z,1015.41
2023-04-10T10:53:23.598Z,1015.48
2023-04-10T10:54:24.485Z,1015.47
2023-04-10T10:55:27.943Z,1015.41
2023-04-10T10:56:23.545Z,1015.44
2023-04-10T10:57:23.527Z,1015.47
2023-04-10T10:58:23.539Z,1015.45
2023-04-10T10:59:23.494Z,1015.41
2023-04-10T11:00:23.542Z,1015.46
2023-04-10T11:01:23.459Z,1015.36
2023-04-10T11:02:23.633Z,1015.38
2023-04-10T11:03:31.132Z,1015.44
2023-04-10T11:04:23.404Z,1015.38
2023-04-10T11:05:23.387Z,1015.36
2023-04-10T11:06:23.412Z,1015.41
2023-04-10T11:07:23.359Z,1015.29
2023-04-10T11:08:23.425Z,1015.27
2023-04-10T11:09:23.365Z,1015.24
2023-04-10T11:10:24.776Z,1015.28
2023-04-10T11:11:23.362Z,1015.19
2023-04-10T11:12:23.458Z,1015.23
2023-04-10T11:13:23.435Z,1015.18
2023-04-10T11:14:24.472Z,1015.22
2023-04-10T11:15:23.586Z,1015.19
2023-04-10T11:16:23.825Z,1015.16
2023-04-10T11:17:23.292Z,1015.13
2023-04-10T11:18:23.389Z,1015.15
2023-04-10T11:19:24.024Z,1015.18
2023-04-10T11:20:23.685Z,1015.15
2023-04-10T11:21:23.429Z,1015.12
2023-04-10T11:22:23.183Z,1015.12
2023-04-10T11:23:23.181Z,1015.07
2023-04-10T11:24:23.350Z,1015.10
2023-04-10T11:25:38.340Z,1015.08
2023-04-10T11:26:23.159Z,1015.09
2023-04-10T11:27:23.214Z,1015.20
2023-04-10T11:28:24.218Z,1015.06
2023-04-10T11:29:24.289Z,1015.05
2023-04-10T11:30:23.120Z,1015.03
2023-04-10T11:31:23.377Z,1014.96
2023-04-10T11:32:23.784Z,1014.97
2023-04-10T11:33:23.059Z,1014.94
2023-04-10T11:34:23.328Z,1014.85
2023-04-10T11:35:23.199Z,1014.84
2023-04-10T11:36:24.452Z,1014.84
2023-04-10T11:37:24.044Z,1014.78
2023-04-10T11:38:22.963Z,1014.77
2023-04-10T11:39:22.925Z,1014.77
2023-04-10T11:40:23.082Z,1014.71
2023-04-10T11:41:22.951Z,1014.72
2023-04-10T11:42:23.033Z,1014.73
2023-04-10T11:43:25.603Z,1014.63
2023-04-10T11:44:22.910Z,1014.66
2023-04-10T11:45:22.910Z,1014.70
2023-04-10T11:46:22.898Z,1014.58
2023-04-10T11:47:22.895Z,1014.61
2023-04-10T11:48:22.866Z,1014.77
2023-04-10T11:49:22.795Z,1014.63
2023-04-10T11:50:22.800Z,1014.57
2023-04-10T11:51:22.805Z,1014.59
2023-04-10T11:52:22.860Z,1014.54
2023-04-10T11:53:22.798Z,1014.57
2023-04-10T11:54:22.814Z,1014.54
2023-04-10T11:55:22.789Z,1014.50
2023-04-10T11:56:22.747Z,1014.46
2023-04-10T11:57:22.807Z,1014.43
2023-04-10T11:58:22.726Z,1014.39
2023-04-10T11:59:22.776Z,1014.43
2023-04-10T12:00:22.681Z,1014.41
2023-04-10T12:01:22.698Z,1014.41
2023-04-10T12:02:22.852Z,1014.43
2023-04-10T12:03:22.858Z,1014.40
2023-04-10T12:04:22.982Z,1014.37
2023-04-10T12:05:22.621Z,1014.40